sensor_id;sensor_type;location;lat;lon;timestamp;temperature;humidity
24446;DHT22;13347;50.984;5.822;2023-07-29T00:01:58;19.40;99.90
24446;DHT22;13347;50.984;5.822;2023-07-29T00:04:25;19.40;99.90
24446;DHT22;13347;50.984;5.822;2023-07-29T00:06:52;19.50;99.90
24446;DHT22;13347;50.984;5.822;2023-07-29T00:09:19;19.50;99.90
24446;DHT22;13347;50.984;5.822;2023-07-29T00:11:46;19.60;99.90
24446;DHT22;13347;50.984;5.822;2023-07-29T00:14:13;19.70;99.90
24446;DHT22;13347;50.984;5.822;2023-07-29T00:16:40;19.80;99.90
24446;DHT22;13347;50.984;5.822;2023-07-29T00:19:09;19.80;99.90
24446;DHT22;13347;50.984;5.822;2023-07-29T00:21:36;19.80;99.90
24446;DHT22;13347;50.984;5.822;2023-07-29T00:24:04;19.70;99.90
24446;DHT22;13347;50.984;5.822;2023-07-29T00:26:31;19.70;99.90
24446;DHT22;13347;50.984;5.822;2023-07-29T00:28:58;19.70;99.90
24446;DHT22;13347;50.984;5.822;2023-07-29T00:31:25;19.60;99.90
24446;DHT22;13347;50.984;5.822;2023-07-29T00:33:52;19.60;99.90
24446;DHT22;13347;50.984;5.822;2023-07-29T00:36:21;19.60;99.90
24446;DHT22;13347;50.984;5.822;2023-07-29T00:38:48;19.70;99.90
24446;DHT22;13347;50.984;5.822;2023-07-29T00:41:15;19.70;99.90
24446;DHT22;13347;50.984;5.822;2023-07-29T00:43:42;19.70;99.90
24446;DHT22;13347;50.984;5.822;2023-07-29T00:46:09;19.70;99.90
24446;DHT22;13347;50.984;5.822;2023-07-29T00:48:38;19.80;99.90
24446;DHT22;13347;50.984;5.822;2023-07-29T00:51:05;19.80;99.90
24446;DHT22;13347;50.984;5.822;2023-07-29T00:53:34;19.60;99.90
24446;DHT22;13347;50.984;5.822;2023-07-29T00:56:01;19.50;99.90
24446;DHT22;13347;50.984;5.822;2023-07-29T00:58:28;19.40;99.90
24446;DHT22;13347;50.984;5.822;2023-07-29T01:00:55;19.40;99.90
24446;DHT22;13347;50.984;5.822;2023-07-29T01:03:22;19.50;99.90
24446;DHT22;13347;50.984;5.822;2023-07-29T01:05:50;19.50;99.90
24446;DHT22;13347;50.984;5.822;2023-07-29T01:08:25;19.60;99.90
24446;DHT22;13347;50.984;5.822;2023-07-29T01:10:58;19.70;99.90
24446;DHT22;13347;50.984;5.822;2023-07-29T01:13:37;19.70;99.90
24446;DHT22;13347;50.984;5.822;2023-07-29T01:16:08;19.70;99.90
24446;DHT22;13347;50.984;5.822;2023-07-29T01:18:37;19.70;99.90
24446;DHT22;13347;50.984;5.822;2023-07-29T01:21:07;19.70;99.90
24446;DHT22;13347;50.984;5.822;2023-07-29T01:23:36;19.60;99.90
24446;DHT22;13347;50.984;5.822;2023-07-29T01:26:03;19.60;99.90
24446;DHT22;13347;50.984;5.822;2023-07-29T01:28:30;19.60;99.90
24446;DHT22;13347;50.984;5.822;2023-07-29T01:30:58;19.50;99.90
24446;DHT22;13347;50.984;5.822;2023-07-29T01:33:28;19.40;99.90
24446;DHT22;13347;50.984;5.822;2023-07-29T01:35:57;19.40;99.90
24446;DHT22;13347;50.984;5.822;2023-07-29T01:38:27;19.40;99.90
24446;DHT22;13347;50.984;5.822;2023-07-29T01:40:58;19.40;99.90
24446;DHT22;13347;50.984;5.822;2023-07-29T01:43:27;19.40;99.90
24446;DHT22;13347;50.984;5.822;2023-07-29T01:45:54;19.30;99.90
24446;DHT22;13347;50.984;5.822;2023-07-29T01:48:22;19.30;99.90
24446;DHT22;13347;50.984;5.822;2023-07-29T01:50:49;19.30;99.90
24446;DHT22;13347;50.984;5.822;2023-07-29T01:53:16;19.30;99.90
24446;DHT22;13347;50.984;5.822;2023-07-29T01:55:43;19.30;99.90
24446;DHT22;13347;50.984;5.822;2023-07-29T01:58:12;19.30;99.90
24446;DHT22;13347;50.984;5.822;2023-07-29T02:00:39;19.30;99.90
24446;DHT22;13347;50.984;5.822;2023-07-29T02:03:06;19.30;99.90
24446;DHT22;13347;50.984;5.822;2023-07-29T02:05:33;19.20;99.90
24446;DHT22;13347;50.984;5.822;2023-07-29T02:08:00;19.10;99.90
24446;DHT22;13347;50.984;5.822;2023-07-29T02:10:27;19.00;99.90
24446;DHT22;13347;50.984;5.822;2023-07-29T02:12:54;18.90;99.90
24446;DHT22;13347;50.984;5.822;2023-07-29T02:15:23;18.80;99.90
24446;DHT22;13347;50.984;5.822;2023-07-29T02:17:50;18.70;99.90
24446;DHT22;13347;50.984;5.822;2023-07-29T02:20:17;18.60;99.90
24446;DHT22;13347;50.984;5.822;2023-07-29T02:22:44;18.60;99.90
24446;DHT22;13347;50.984;5.822;2023-07-29T02:25:11;18.60;99.90
24446;DHT22;13347;50.984;5.822;2023-07-29T02:27:38;18.60;99.90
24446;DHT22;13347;50.984;5.822;2023-07-29T02:30:06;18.60;99.90
24446;DHT22;13347;50.984;5.822;2023-07-29T02:32:36;18.50;99.90
24446;DHT22;13347;50.984;5.822;2023-07-29T02:35:03;18.50;99.90
24446;DHT22;13347;50.984;5.822;2023-07-29T02:37:31;18.50;99.90
24446;DHT22;13347;50.984;5.822;2023-07-29T02:39:58;18.60;99.90
24446;DHT22;13347;50.984;5.822;2023-07-29T02:42:25;18.50;99.90
24446;DHT22;13347;50.984;5.822;2023-07-29T02:44:52;18.50;99.90
24446;DHT22;13347;50.984;5.822;2023-07-29T02:47:19;18.50;99.90
24446;DHT22;13347;50.984;5.822;2023-07-29T02:49:48;18.50;99.90
24446;DHT22;13347;50.984;5.822;2023-07-29T02:52:15;18.50;99.90
24446;DHT22;13347;50.984;5.822;2023-07-29T02:54:42;18.50;99.90
24446;DHT22;13347;50.984;5.822;2023-07-29T02:57:09;18.40;99.90
24446;DHT22;13347;50.984;5.822;2023-07-29T02:59:36;18.50;99.90
24446;DHT22;13347;50.984;5.822;2023-07-29T03:02:03;18.40;99.90
24446;DHT22;13347;50.984;5.822;2023-07-29T03:04:30;18.40;99.90
24446;DHT22;13347;50.984;5.822;2023-07-29T03:06:59;18.40;99.90
24446;DHT22;13347;50.984;5.822;2023-07-29T03:09:26;18.40;99.90
24446;DHT22;13347;50.984;5.822;2023-07-29T03:11:53;18.40;99.90
24446;DHT22;13347;50.984;5.822;2023-07-29T03:14:20;18.40;99.90
24446;DHT22;13347;50.984;5.822;2023-07-29T03:16:47;18.40;99.90
24446;DHT22;13347;50.984;5.822;2023-07-29T03:19:14;18.40;99.90
24446;DHT22;13347;50.984;5.822;2023-07-29T03:21:42;18.40;99.90
24446;DHT22;13347;50.984;5.822;2023-07-29T03:24:10;18.40;99.90
24446;DHT22;13347;50.984;5.822;2023-07-29T03:26:37;18.30;99.90
24446;DHT22;13347;50.984;5.822;2023-07-29T03:29:04;18.20;99.90
24446;DHT22;13347;50.984;5.822;2023-07-29T03:31:31;18.30;99.90
24446;DHT22;13347;50.984;5.822;2023-07-29T03:33:58;18.30;99.90
24446;DHT22;13347;50.984;5.822;2023-07-29T03:36:25;18.20;99.90
24446;DHT22;13347;50.984;5.822;2023-07-29T03:38:52;18.20;99.90
24446;DHT22;13347;50.984;5.822;2023-07-29T03:41:20;18.20;99.90
24446;DHT22;13347;50.984;5.822;2023-07-29T03:43:47;18.10;99.90
24446;DHT22;13347;50.984;5.822;2023-07-29T03:46:14;18.20;99.90
24446;DHT22;13347;50.984;5.822;2023-07-29T03:48:45;18.10;99.90
24446;DHT22;13347;50.984;5.822;2023-07-29T03:51:12;18.10;99.90
24446;DHT22;13347;50.984;5.822;2023-07-29T03:53:39;18.10;99.90
24446;DHT22;13347;50.984;5.822;2023-07-29T03:56:06;18.10;99.90
24446;DHT22;13347;50.984;5.822;2023-07-29T03:58:34;18.10;99.90
24446;DHT22;13347;50.984;5.822;2023-07-29T04:01:01;18.00;99.90
24446;DHT22;13347;50.984;5.822;2023-07-29T04:03:30;18.00;99.90
24446;DHT22;13347;50.984;5.822;2023-07-29T04:05:57;18.00;99.90
24446;DHT22;13347;50.984;5.822;2023-07-29T04:08:24;18.00;99.90
24446;DHT22;13347;50.984;5.822;2023-07-29T04:10:51;18.00;99.90
24446;DHT22;13347;50.984;5.822;2023-07-29T04:13:18;17.90;99.90
24446;DHT22;13347;50.984;5.822;2023-07-29T04:15:46;17.90;99.90
24446;DHT22;13347;50.984;5.822;2023-07-29T04:18:13;17.80;99.90
24446;DHT22;13347;50.984;5.822;2023-07-29T04:20:40;17.80;99.90
24446;DHT22;13347;50.984;5.822;2023-07-29T04:23:07;17.80;99.90
24446;DHT22;13347;50.984;5.822;2023-07-29T04:25:34;17.80;99.90
24446;DHT22;13347;50.984;5.822;2023-07-29T04:28:01;17.80;99.90
24446;DHT22;13347;50.984;5.822;2023-07-29T04:30:30;17.70;99.90
24446;DHT22;13347;50.984;5.822;2023-07-29T04:32:59;17.70;99.90
24446;DHT22;13347;50.984;5.822;2023-07-29T04:35:26;17.70;99.90
24446;DHT22;13347;50.984;5.822;2023-07-29T04:37:53;17.60;99.90
24446;DHT22;13347;50.984;5.822;2023-07-29T04:40:20;17.70;99.90
24446;DHT22;13347;50.984;5.822;2023-07-29T04:42:48;17.70;99.90
24446;DHT22;13347;50.984;5.822;2023-07-29T04:45:15;17.70;99.90
24446;DHT22;13347;50.984;5.822;2023-07-29T04:47:42;17.70;99.90
24446;DHT22;13347;50.984;5.822;2023-07-29T04:50:11;17.80;99.90
24446;DHT22;13347;50.984;5.822;2023-07-29T04:52:38;17.80;99.90
24446;DHT22;13347;50.984;5.822;2023-07-29T04:55:05;17.80;99.90
24446;DHT22;13347;50.984;5.822;2023-07-29T04:57:32;17.80;99.90
24446;DHT22;13347;50.984;5.822;2023-07-29T04:59:59;17.80;99.90
24446;DHT22;13347;50.984;5.822;2023-07-29T05:02:26;17.80;99.90
24446;DHT22;13347;50.984;5.822;2023-07-29T05:04:53;17.80;99.90
24446;DHT22;13347;50.984;5.822;2023-07-29T05:07:22;17.70;99.90
24446;DHT22;13347;50.984;5.822;2023-07-29T05:09:49;17.80;99.90
24446;DHT22;13347;50.984;5.822;2023-07-29T05:12:16;17.70;99.90
24446;DHT22;13347;50.984;5.822;2023-07-29T05:14:43;17.70;99.90
24446;DHT22;13347;50.984;5.822;2023-07-29T05:17:10;17.70;99.90
24446;DHT22;13347;50.984;5.822;2023-07-29T05:19:37;17.80;99.90
24446;DHT22;13347;50.984;5.822;2023-07-29T05:22:04;17.80;99.90
24446;DHT22;13347;50.984;5.822;2023-07-29T05:24:32;17.80;99.90
24446;DHT22;13347;50.984;5.822;2023-07-29T05:26:59;17.80;99.90
24446;DHT22;13347;50.984;5.822;2023-07-29T05:29:26;17.90;99.90
24446;DHT22;13347;50.984;5.822;2023-07-29T05:31:53;17.80;99.90
24446;DHT22;13347;50.984;5.822;2023-07-29T05:34:20;17.80;99.90
24446;DHT22;13347;50.984;5.822;2023-07-29T05:36:47;17.70;99.90
24446;DHT22;13347;50.984;5.822;2023-07-29T05:39:14;17.70;99.90
24446;DHT22;13347;50.984;5.822;2023-07-29T05:41:42;17.80;99.90
24446;DHT22;13347;50.984;5.822;2023-07-29T05:44:09;17.80;99.90
24446;DHT22;13347;50.984;5.822;2023-07-29T05:46:36;17.80;99.90
24446;DHT22;13347;50.984;5.822;2023-07-29T05:49:03;17.80;99.90
24446;DHT22;13347;50.984;5.822;2023-07-29T05:51:30;17.90;99.90
24446;DHT22;13347;50.984;5.822;2023-07-29T05:53:57;17.90;99.90
24446;DHT22;13347;50.984;5.822;2023-07-29T05:56:24;18.00;99.90
24446;DHT22;13347;50.984;5.822;2023-07-29T05:58:53;18.00;99.90
24446;DHT22;13347;50.984;5.822;2023-07-29T06:01:20;18.10;99.90
24446;DHT22;13347;50.984;5.822;2023-07-29T06:03:47;18.10;99.90
24446;DHT22;13347;50.984;5.822;2023-07-29T06:06:15;18.20;99.90
24446;DHT22;13347;50.984;5.822;2023-07-29T06:08:42;18.30;99.90
24446;DHT22;13347;50.984;5.822;2023-07-29T06:11:09;18.40;99.90
24446;DHT22;13347;50.984;5.822;2023-07-29T06:13:36;18.30;99.90
24446;DHT22;13347;50.984;5.822;2023-07-29T06:16:05;18.40;99.90
24446;DHT22;13347;50.984;5.822;2023-07-29T06:18:32;18.50;99.90
24446;DHT22;13347;50.984;5.822;2023-07-29T06:20:59;18.60;99.90
24446;DHT22;13347;50.984;5.822;2023-07-29T06:23:26;18.70;99.90
24446;DHT22;13347;50.984;5.822;2023-07-29T06:25:53;19.00;99.90
24446;DHT22;13347;50.984;5.822;2023-07-29T06:28:20;19.10;99.90
24446;DHT22;13347;50.984;5.822;2023-07-29T06:30:47;19.20;99.90
24446;DHT22;13347;50.984;5.822;2023-07-29T06:33:15;19.10;99.90
24446;DHT22;13347;50.984;5.822;2023-07-29T06:35:42;19.10;99.90
24446;DHT22;13347;50.984;5.822;2023-07-29T06:38:09;19.00;99.90
24446;DHT22;13347;50.984;5.822;2023-07-29T06:40:36;18.90;99.90
24446;DHT22;13347;50.984;5.822;2023-07-29T06:43:03;18.90;99.90
24446;DHT22;13347;50.984;5.822;2023-07-29T06:45:30;18.80;99.90
24446;DHT22;13347;50.984;5.822;2023-07-29T06:47:57;18.80;99.90
24446;DHT22;13347;50.984;5.822;2023-07-29T06:50:26;18.70;99.90
24446;DHT22;13347;50.984;5.822;2023-07-29T06:52:53;18.60;99.90
24446;DHT22;13347;50.984;5.822;2023-07-29T06:55:20;18.80;99.90
24446;DHT22;13347;50.984;5.822;2023-07-29T06:57:47;19.10;99.90
24446;DHT22;13347;50.984;5.822;2023-07-29T07:00:14;20.20;99.90
24446;DHT22;13347;50.984;5.822;2023-07-29T07:02:41;21.00;99.90
24446;DHT22;13347;50.984;5.822;2023-07-29T07:05:09;21.50;99.90
24446;DHT22;13347;50.984;5.822;2023-07-29T07:07:37;22.10;1.00
24446;DHT22;13347;50.984;5.822;2023-07-29T07:10:05;22.10;99.90
24446;DHT22;13347;50.984;5.822;2023-07-29T07:12:32;22.30;1.00
24446;DHT22;13347;50.984;5.822;2023-07-29T07:15:00;22.60;1.00
24446;DHT22;13347;50.984;5.822;2023-07-29T07:17:27;22.50;1.00
24446;DHT22;13347;50.984;5.822;2023-07-29T07:19:54;22.80;1.00
24446;DHT22;13347;50.984;5.822;2023-07-29T07:22:21;22.20;35.30
24446;DHT22;13347;50.984;5.822;2023-07-29T07:24:50;21.60;1.00
24446;DHT22;13347;50.984;5.822;2023-07-29T07:27:17;21.40;1.00
24446;DHT22;13347;50.984;5.822;2023-07-29T07:29:45;21.50;22.90
24446;DHT22;13347;50.984;5.822;2023-07-29T07:32:12;22.10;1.00
24446;DHT22;13347;50.984;5.822;2023-07-29T07:34:39;22.00;30.50
24446;DHT22;13347;50.984;5.822;2023-07-29T07:37:06;21.60;99.90
24446;DHT22;13347;50.984;5.822;2023-07-29T07:39:33;21.40;99.90
24446;DHT22;13347;50.984;5.822;2023-07-29T07:42:01;21.40;99.90
24446;DHT22;13347;50.984;5.822;2023-07-29T07:44:28;21.50;99.90
24446;DHT22;13347;50.984;5.822;2023-07-29T07:46:55;21.30;99.90
24446;DHT22;13347;50.984;5.822;2023-07-29T07:49:22;21.00;1.00
24446;DHT22;13347;50.984;5.822;2023-07-29T07:51:49;20.60;40.80
24446;DHT22;13347;50.984;5.822;2023-07-29T07:54:17;20.80;1.00
24446;DHT22;13347;50.984;5.822;2023-07-29T07:56:44;21.00;99.90
24446;DHT22;13347;50.984;5.822;2023-07-29T07:59:12;21.10;1.00
24446;DHT22;13347;50.984;5.822;2023-07-29T08:01:39;20.90;1.00
24446;DHT22;13347;50.984;5.822;2023-07-29T08:04:06;21.10;1.00
24446;DHT22;13347;50.984;5.822;2023-07-29T08:06:33;21.00;1.00
24446;DHT22;13347;50.984;5.822;2023-07-29T08:09:01;21.10;1.00
24446;DHT22;13347;50.984;5.822;2023-07-29T08:11:28;21.30;1.00
24446;DHT22;13347;50.984;5.822;2023-07-29T08:13:55;21.30;27.10
24446;DHT22;13347;50.984;5.822;2023-07-29T08:16:23;21.40;99.90
24446;DHT22;13347;50.984;5.822;2023-07-29T08:18:51;21.30;1.00
24446;DHT22;13347;50.984;5.822;2023-07-29T08:21:18;21.10;99.90
24446;DHT22;13347;50.984;5.822;2023-07-29T08:23:45;21.10;99.90
24446;DHT22;13347;50.984;5.822;2023-07-29T08:26:12;20.90;99.90
24446;DHT22;13347;50.984;5.822;2023-07-29T08:28:39;20.70;1.00
24446;DHT22;13347;50.984;5.822;2023-07-29T08:31:06;20.60;1.00
24446;DHT22;13347;50.984;5.822;2023-07-29T08:33:35;20.70;1.00
24446;DHT22;13347;50.984;5.822;2023-07-29T08:36:02;20.80;1.00
24446;DHT22;13347;50.984;5.822;2023-07-29T08:38:29;20.50;1.00
24446;DHT22;13347;50.984;5.822;2023-07-29T08:40:58;20.50;48.10
24446;DHT22;13347;50.984;5.822;2023-07-29T08:43:28;20.40;1.00
24446;DHT22;13347;50.984;5.822;2023-07-29T08:45:56;20.40;1.00
24446;DHT22;13347;50.984;5.822;2023-07-29T08:48:25;20.70;1.00
24446;DHT22;13347;50.984;5.822;2023-07-29T08:50:57;21.00;99.90
24446;DHT22;13347;50.984;5.822;2023-07-29T08:53:25;21.10;99.90
24446;DHT22;13347;50.984;5.822;2023-07-29T08:55:53;21.40;1.00
24446;DHT22;13347;50.984;5.822;2023-07-29T08:58:21;21.40;1.00
24446;DHT22;13347;50.984;5.822;2023-07-29T09:00:48;22.10;1.00
24446;DHT22;13347;50.984;5.822;2023-07-29T09:03:16;22.50;1.00
24446;DHT22;13347;50.984;5.822;2023-07-29T09:05:43;22.60;99.90
24446;DHT22;13347;50.984;5.822;2023-07-29T09:08:12;22.60;99.90
24446;DHT22;13347;50.984;5.822;2023-07-29T09:10:39;22.60;1.00
24446;DHT22;13347;50.984;5.822;2023-07-29T09:13:06;22.40;1.00
24446;DHT22;13347;50.984;5.822;2023-07-29T09:15:34;22.60;1.00
24446;DHT22;13347;50.984;5.822;2023-07-29T09:18:08;23.30;1.00
24446;DHT22;13347;50.984;5.822;2023-07-29T09:20:35;22.90;1.00
24446;DHT22;13347;50.984;5.822;2023-07-29T09:23:02;23.00;1.00
24446;DHT22;13347;50.984;5.822;2023-07-29T09:25:31;23.20;99.90
24446;DHT22;13347;50.984;5.822;2023-07-29T09:27:59;23.10;99.90
24446;DHT22;13347;50.984;5.822;2023-07-29T09:30:26;23.90;99.90
24446;DHT22;13347;50.984;5.822;2023-07-29T09:32:54;24.90;1.00
24446;DHT22;13347;50.984;5.822;2023-07-29T09:35:22;25.00;1.00
24446;DHT22;13347;50.984;5.822;2023-07-29T09:37:50;25.50;1.00
24446;DHT22;13347;50.984;5.822;2023-07-29T09:40:17;25.20;1.00
24446;DHT22;13347;50.984;5.822;2023-07-29T09:42:49;24.60;1.00
24446;DHT22;13347;50.984;5.822;2023-07-29T09:45:23;24.50;1.00
24446;DHT22;13347;50.984;5.822;2023-07-29T09:47:51;23.90;1.00
24446;DHT22;13347;50.984;5.822;2023-07-29T09:50:18;23.70;1.00
24446;DHT22;13347;50.984;5.822;2023-07-29T09:52:45;24.00;1.00
24446;DHT22;13347;50.984;5.822;2023-07-29T09:55:16;24.20;1.00
24446;DHT22;13347;50.984;5.822;2023-07-29T09:57:44;25.00;1.00
24446;DHT22;13347;50.984;5.822;2023-07-29T10:00:13;24.90;1.00
24446;DHT22;13347;50.984;5.822;2023-07-29T10:02:40;24.70;1.00
24446;DHT22;13347;50.984;5.822;2023-07-29T10:05:08;24.20;1.00
24446;DHT22;13347;50.984;5.822;2023-07-29T10:07:36;23.70;1.00
24446;DHT22;13347;50.984;5.822;2023-07-29T10:10:04;23.50;1.00
24446;DHT22;13347;50.984;5.822;2023-07-29T10:12:32;23.30;1.00
24446;DHT22;13347;50.984;5.822;2023-07-29T10:14:59;23.20;1.00
24446;DHT22;13347;50.984;5.822;2023-07-29T10:17:28;23.10;1.00
24446;DHT22;13347;50.984;5.822;2023-07-29T10:19:56;22.80;1.00
24446;DHT22;13347;50.984;5.822;2023-07-29T10:22:24;22.50;1.00
24446;DHT22;13347;50.984;5.822;2023-07-29T10:24:52;22.30;47.20
24446;DHT22;13347;50.984;5.822;2023-07-29T10:27:20;22.40;99.90
24446;DHT22;13347;50.984;5.822;2023-07-29T10:29:50;22.70;99.90
24446;DHT22;13347;50.984;5.822;2023-07-29T10:32:17;22.70;91.80
24446;DHT22;13347;50.984;5.822;2023-07-29T10:34:47;23.80;99.90
24446;DHT22;13347;50.984;5.822;2023-07-29T10:37:14;24.40;1.00
24446;DHT22;13347;50.984;5.822;2023-07-29T10:39:51;24.30;1.00
24446;DHT22;13347;50.984;5.822;2023-07-29T10:42:18;24.00;1.00
24446;DHT22;13347;50.984;5.822;2023-07-29T10:44:46;23.60;1.00
24446;DHT22;13347;50.984;5.822;2023-07-29T10:47:14;23.20;1.00
24446;DHT22;13347;50.984;5.822;2023-07-29T10:49:42;23.20;1.00
24446;DHT22;13347;50.984;5.822;2023-07-29T10:52:13;23.40;1.00
24446;DHT22;13347;50.984;5.822;2023-07-29T10:54:43;23.30;1.00
24446;DHT22;13347;50.984;5.822;2023-07-29T10:57:13;23.20;1.00
24446;DHT22;13347;50.984;5.822;2023-07-29T10:59:41;23.80;1.00
24446;DHT22;13347;50.984;5.822;2023-07-29T11:02:15;24.20;1.00
24446;DHT22;13347;50.984;5.822;2023-07-29T11:04:47;24.40;1.00
24446;DHT22;13347;50.984;5.822;2023-07-29T11:07:26;24.50;1.00
24446;DHT22;13347;50.984;5.822;2023-07-29T11:09:54;24.60;1.00
24446;DHT22;13347;50.984;5.822;2023-07-29T11:12:38;24.70;1.00
24446;DHT22;13347;50.984;5.822;2023-07-29T11:15:23;24.60;1.00
24446;DHT22;13347;50.984;5.822;2023-07-29T11:17:51;25.20;1.00
24446;DHT22;13347;50.984;5.822;2023-07-29T11:20:19;25.70;1.00
24446;DHT22;13347;50.984;5.822;2023-07-29T11:22:48;25.40;1.00
24446;DHT22;13347;50.984;5.822;2023-07-29T11:25:17;24.90;99.90
24446;DHT22;13347;50.984;5.822;2023-07-29T11:27:44;24.60;1.00
24446;DHT22;13347;50.984;5.822;2023-07-29T11:30:12;24.50;1.00
24446;DHT22;13347;50.984;5.822;2023-07-29T11:32:40;24.10;1.00
24446;DHT22;13347;50.984;5.822;2023-07-29T11:35:08;23.40;1.00
24446;DHT22;13347;50.984;5.822;2023-07-29T11:37:35;23.60;1.00
24446;DHT22;13347;50.984;5.822;2023-07-29T11:40:05;24.00;1.00
24446;DHT22;13347;50.984;5.822;2023-07-29T11:42:33;24.20;1.00
24446;DHT22;13347;50.984;5.822;2023-07-29T11:45:01;24.50;1.00
24446;DHT22;13347;50.984;5.822;2023-07-29T11:47:29;24.20;1.00
24446;DHT22;13347;50.984;5.822;2023-07-29T11:49:58;24.10;1.00
24446;DHT22;13347;50.984;5.822;2023-07-29T11:52:25;24.00;1.00
24446;DHT22;13347;50.984;5.822;2023-07-29T11:54:54;23.70;1.00
24446;DHT22;13347;50.984;5.822;2023-07-29T11:57:22;23.30;1.00
24446;DHT22;13347;50.984;5.822;2023-07-29T11:59:50;22.90;1.00
24446;DHT22;13347;50.984;5.822;2023-07-29T12:02:17;22.70;1.00
24446;DHT22;13347;50.984;5.822;2023-07-29T12:04:46;22.50;99.90
24446;DHT22;13347;50.984;5.822;2023-07-29T12:07:14;22.20;1.00
24446;DHT22;13347;50.984;5.822;2023-07-29T12:09:41;22.00;1.00
24446;DHT22;13347;50.984;5.822;2023-07-29T12:12:09;21.90;99.90
24446;DHT22;13347;50.984;5.822;2023-07-29T12:14:37;21.90;1.00
24446;DHT22;13347;50.984;5.822;2023-07-29T12:17:05;21.80;99.90
24446;DHT22;13347;50.984;5.822;2023-07-29T12:19:32;21.70;99.90
24446;DHT22;13347;50.984;5.822;2023-07-29T12:22:00;21.50;99.90
24446;DHT22;13347;50.984;5.822;2023-07-29T12:24:27;21.30;1.00
24446;DHT22;13347;50.984;5.822;2023-07-29T12:26:55;21.00;99.90
24446;DHT22;13347;50.984;5.822;2023-07-29T12:29:22;20.90;1.00
24446;DHT22;13347;50.984;5.822;2023-07-29T12:31:56;20.80;1.00
24446;DHT22;13347;50.984;5.822;2023-07-29T12:34:24;20.60;9.80
24446;DHT22;13347;50.984;5.822;2023-07-29T12:36:51;20.30;99.90
24446;DHT22;13347;50.984;5.822;2023-07-29T12:39:21;20.10;99.90
24446;DHT22;13347;50.984;5.822;2023-07-29T12:41:48;19.80;99.90
24446;DHT22;13347;50.984;5.822;2023-07-29T12:44:15;19.60;99.90
24446;DHT22;13347;50.984;5.822;2023-07-29T12:46:42;19.50;99.90
24446;DHT22;13347;50.984;5.822;2023-07-29T12:49:11;19.30;99.90
24446;DHT22;13347;50.984;5.822;2023-07-29T12:51:38;19.30;99.90
24446;DHT22;13347;50.984;5.822;2023-07-29T12:54:05;19.20;99.90
24446;DHT22;13347;50.984;5.822;2023-07-29T12:56:32;19.10;99.90
24446;DHT22;13347;50.984;5.822;2023-07-29T12:58:59;18.90;99.90
24446;DHT22;13347;50.984;5.822;2023-07-29T13:01:27;18.70;99.90
24446;DHT22;13347;50.984;5.822;2023-07-29T13:03:54;18.60;99.90
24446;DHT22;13347;50.984;5.822;2023-07-29T13:06:23;18.50;99.90
24446;DHT22;13347;50.984;5.822;2023-07-29T13:08:50;18.50;99.90
24446;DHT22;13347;50.984;5.822;2023-07-29T13:11:17;18.50;99.90
24446;DHT22;13347;50.984;5.822;2023-07-29T13:13:44;18.50;99.90
24446;DHT22;13347;50.984;5.822;2023-07-29T13:16:11;18.60;99.90
24446;DHT22;13347;50.984;5.822;2023-07-29T13:18:38;18.80;99.90
24446;DHT22;13347;50.984;5.822;2023-07-29T13:21:05;19.40;99.90
24446;DHT22;13347;50.984;5.822;2023-07-29T13:23:33;20.30;99.90
24446;DHT22;13347;50.984;5.822;2023-07-29T13:26:00;20.80;99.90
24446;DHT22;13347;50.984;5.822;2023-07-29T13:28:28;21.30;99.90
24446;DHT22;13347;50.984;5.822;2023-07-29T13:30:55;22.00;99.90
24446;DHT22;13347;50.984;5.822;2023-07-29T13:33:21;22.40;99.90
24446;DHT22;13347;50.984;5.822;2023-07-29T13:35:49;22.80;99.90
24446;DHT22;13347;50.984;5.822;2023-07-29T13:38:16;22.70;1.00
24446;DHT22;13347;50.984;5.822;2023-07-29T13:40:44;22.40;1.00
24446;DHT22;13347;50.984;5.822;2023-07-29T13:43:12;22.30;1.00
24446;DHT22;13347;50.984;5.822;2023-07-29T13:45:39;22.10;1.00
24446;DHT22;13347;50.984;5.822;2023-07-29T13:48:06;21.90;1.00
24446;DHT22;13347;50.984;5.822;2023-07-29T13:50:33;21.80;45.70
24446;DHT22;13347;50.984;5.822;2023-07-29T13:53:00;22.00;1.00
24446;DHT22;13347;50.984;5.822;2023-07-29T13:55:27;22.00;1.00
24446;DHT22;13347;50.984;5.822;2023-07-29T13:57:55;21.60;29.20
24446;DHT22;13347;50.984;5.822;2023-07-29T14:00:22;21.40;99.90
24446;DHT22;13347;50.984;5.822;2023-07-29T14:02:49;21.50;99.90
24446;DHT22;13347;50.984;5.822;2023-07-29T14:05:16;21.70;99.90
24446;DHT22;13347;50.984;5.822;2023-07-29T14:07:44;21.70;99.90
24446;DHT22;13347;50.984;5.822;2023-07-29T14:10:11;21.80;99.90
24446;DHT22;13347;50.984;5.822;2023-07-29T14:12:38;21.60;31.00
24446;DHT22;13347;50.984;5.822;2023-07-29T14:15:07;21.50;99.90
24446;DHT22;13347;50.984;5.822;2023-07-29T14:17:34;21.30;99.90
24446;DHT22;13347;50.984;5.822;2023-07-29T14:20:01;21.30;99.90
24446;DHT22;13347;50.984;5.822;2023-07-29T14:22:30;21.20;99.90
24446;DHT22;13347;50.984;5.822;2023-07-29T14:24:57;21.00;99.90
24446;DHT22;13347;50.984;5.822;2023-07-29T14:27:24;20.90;99.90
24446;DHT22;13347;50.984;5.822;2023-07-29T14:29:51;20.70;99.90
24446;DHT22;13347;50.984;5.822;2023-07-29T14:32:19;20.40;99.90
24446;DHT22;13347;50.984;5.822;2023-07-29T14:34:46;20.40;99.90
24446;DHT22;13347;50.984;5.822;2023-07-29T14:37:14;20.80;99.90
24446;DHT22;13347;50.984;5.822;2023-07-29T14:39:41;21.80;99.90
24446;DHT22;13347;50.984;5.822;2023-07-29T14:42:08;22.10;99.90
24446;DHT22;13347;50.984;5.822;2023-07-29T14:44:35;22.70;99.90
24446;DHT22;13347;50.984;5.822;2023-07-29T14:47:02;23.30;99.90
24446;DHT22;13347;50.984;5.822;2023-07-29T14:49:31;23.70;99.90
24446;DHT22;13347;50.984;5.822;2023-07-29T14:51:58;23.80;99.90
24446;DHT22;13347;50.984;5.822;2023-07-29T14:54:25;24.00;99.90
24446;DHT22;13347;50.984;5.822;2023-07-29T14:56:52;23.80;1.00
24446;DHT22;13347;50.984;5.822;2023-07-29T14:59:20;23.90;1.00
24446;DHT22;13347;50.984;5.822;2023-07-29T15:01:47;24.00;1.00
24446;DHT22;13347;50.984;5.822;2023-07-29T15:04:14;23.80;1.00
24446;DHT22;13347;50.984;5.822;2023-07-29T15:06:43;23.20;1.00
24446;DHT22;13347;50.984;5.822;2023-07-29T15:09:10;22.80;1.00
24446;DHT22;13347;50.984;5.822;2023-07-29T15:11:37;22.70;1.00
24446;DHT22;13347;50.984;5.822;2023-07-29T15:14:04;22.70;12.50
24446;DHT22;13347;50.984;5.822;2023-07-29T15:16:31;22.70;56.70
24446;DHT22;13347;50.984;5.822;2023-07-29T15:18:59;22.60;99.90
24446;DHT22;13347;50.984;5.822;2023-07-29T15:21:26;22.90;99.90
24446;DHT22;13347;50.984;5.822;2023-07-29T15:23:55;23.70;99.90
24446;DHT22;13347;50.984;5.822;2023-07-29T15:26:22;23.90;1.00
24446;DHT22;13347;50.984;5.822;2023-07-29T15:28:52;23.70;1.00
24446;DHT22;13347;50.984;5.822;2023-07-29T15:31:19;23.50;1.00
24446;DHT22;13347;50.984;5.822;2023-07-29T15:33:47;23.20;1.00
24446;DHT22;13347;50.984;5.822;2023-07-29T15:36:14;23.10;1.00
24446;DHT22;13347;50.984;5.822;2023-07-29T15:38:41;23.10;1.00